createdAt,value
2019-05-26T00:04:34.113Z,7.28
2019-05-26T00:09:39.020Z,9.63
2019-05-26T00:14:44.178Z,6.93
2019-05-26T00:19:49.170Z,7.27
2019-05-26T00:24:53.990Z,6.80
2019-05-26T00:29:58.998Z,6.33
2019-05-26T00:35:03.856Z,6.47
2019-05-26T00:40:10.438Z,5.47
2019-05-26T00:45:15.535Z,9.10
2019-05-26T00:50:20.390Z,5.80
2019-05-26T00:55:25.191Z,11.80
2019-05-26T01:00:40.499Z,10.13
2019-05-26T01:05:45.504Z,7.00
2019-05-26T01:10:50.299Z,6.10
2019-05-26T01:15:55.209Z,6.70
2019-05-26T01:21:00.151Z,5.67
2019-05-26T01:26:05.205Z,6.07
2019-05-26T01:31:09.951Z,4.33
2019-05-26T01:36:14.839Z,4.97
2019-05-26T01:41:19.750Z,3.63
2019-05-26T01:46:24.771Z,5.23
2019-05-26T01:51:29.678Z,6.40
2019-05-26T01:56:34.503Z,29.10
2019-05-26T02:01:39.369Z,63.60
2019-05-26T02:06:44.180Z,40.07
2019-05-26T02:11:48.951Z,34.43
2019-05-26T02:16:53.866Z,36.93
2019-05-26T02:21:58.731Z,1.53
2019-05-26T02:27:03.579Z,3.27
2019-05-26T02:32:08.501Z,3.30
2019-05-26T02:37:13.155Z,2.50
2019-05-26T02:42:17.888Z,8.13
2019-05-26T02:47:22.778Z,22.23
2019-05-26T02:52:27.452Z,40.23
2019-05-26T02:57:32.340Z,4.28
2019-05-26T03:02:37.251Z,2.80
2019-05-26T03:07:44.526Z,13.40
2019-05-26T03:12:51.394Z,9.40
2019-05-26T03:17:57.672Z,6.67
2019-05-26T03:23:03.791Z,6.97
2019-05-26T03:28:08.691Z,19.80
2019-05-26T03:33:13.447Z,2.53
2019-05-26T03:38:18.360Z,4.50
2019-05-26T03:43:23.411Z,16.70
2019-05-26T03:48:28.191Z,5.10
2019-05-26T03:53:33.060Z,18.63
2019-05-26T03:58:37.938Z,2.37
2019-05-26T04:03:42.923Z,1.30
2019-05-26T04:08:47.959Z,3.57
2019-05-26T04:13:55.779Z,2.23
2019-05-26T04:19:00.471Z,2.47
2019-05-26T04:24:05.740Z,4.07
2019-05-26T04:29:10.544Z,8.60
2019-05-26T04:34:15.273Z,3.87
2019-05-26T04:39:20.940Z,3.77
2019-05-26T04:44:25.800Z,4.83
2019-05-26T04:49:30.611Z,9.47
2019-05-26T04:54:35.500Z,5.80
2019-05-26T04:59:40.291Z,10.37
2019-05-26T05:04:44.971Z,11.00
2019-05-26T05:09:49.918Z,11.00
2019-05-26T05:14:55.172Z,7.10
2019-05-26T05:19:59.851Z,12.30
2019-05-26T05:25:13.033Z,11.00
2019-05-26T05:30:12.291Z,6.57
2019-05-26T05:35:17.419Z,12.23
2019-05-26T05:40:22.533Z,11.57
2019-05-26T05:45:27.268Z,7.55
2019-05-26T05:50:32.203Z,111.93
2019-05-26T05:55:36.930Z,272.10
2019-05-26T06:00:41.698Z,259.93
2019-05-26T06:05:46.410Z,283.40
2019-05-26T06:10:51.412Z,281.27
2019-05-26T06:15:56.220Z,220.63
2019-05-26T06:21:00.910Z,130.67
2019-05-26T06:26:06.219Z,126.77
2019-05-26T06:31:10.971Z,85.90
2019-05-26T06:36:15.859Z,143.80
2019-05-26T06:41:32.906Z,128.23
2019-05-26T06:46:27.922Z,202.63
2019-05-26T06:51:32.966Z,298.23
2019-05-26T06:56:37.759Z,216.37
2019-05-26T07:01:42.786Z,280.17
2019-05-26T07:06:47.791Z,183.17
2019-05-26T07:11:59.590Z,207.83
2019-05-26T07:16:59.377Z,160.30
2019-05-26T07:22:04.451Z,73.67
2019-05-26T07:27:09.387Z,180.67
2019-05-26T07:32:14.570Z,191.60
2019-05-26T07:37:19.478Z,171.70
2019-05-26T07:42:24.439Z,245.73
2019-05-26T07:47:29.330Z,125.53
2019-05-26T07:52:34.142Z,86.37
2019-05-26T07:57:39.161Z,136.62
2019-05-26T08:02:44.073Z,195.10
2019-05-26T08:07:49.171Z,132.97
2019-05-26T08:12:53.947Z,208.00
2019-05-26T08:17:58.681Z,143.80
2019-05-26T08:23:03.530Z,213.40
2019-05-26T08:28:08.372Z,136.90
2019-05-26T08:33:13.091Z,198.77
2019-05-26T08:38:18.046Z,162.20
2019-05-26T08:43:22.879Z,195.53
2019-05-26T08:48:27.779Z,228.60
2019-05-26T08:53:32.661Z,311.53
2019-05-26T08:58:37.462Z,288.23
2019-05-26T09:03:42.422Z,351.50
2019-05-26T09:08:47.640Z,181.27
2019-05-26T09:13:52.479Z,233.97
2019-05-26T09:18:57.579Z,218.83
2019-05-26T09:24:02.578Z,393.20
2019-05-26T09:29:07.368Z,316.93
2019-05-26T09:34:12.419Z,73.63
2019-05-26T09:39:17.187Z,63.03
2019-05-26T09:44:22.270Z,28.83
2019-05-26T09:49:27.010Z,20.72
2019-05-26T09:54:31.992Z,23.57
2019-05-26T09:59:36.858Z,50.93
2019-05-26T10:04:41.851Z,93.53
2019-05-26T10:09:46.840Z,52.33
2019-05-26T10:14:51.740Z,48.23
2019-05-26T10:19:56.798Z,42.03
2019-05-26T10:25:01.513Z,62.87
2019-05-26T10:30:07.958Z,83.80
2019-05-26T10:35:13.432Z,50.37
2019-05-26T10:40:18.820Z,25.30
2019-05-26T10:45:23.940Z,5.93
2019-05-26T10:50:28.931Z,7.13
2019-05-26T10:55:33.662Z,3.90
2019-05-26T11:00:38.434Z,7.67
2019-05-26T11:05:43.187Z,9.23
2019-05-26T11:10:48.264Z,9.70
2019-05-26T11:15:52.973Z,14.97
2019-05-26T11:20:57.705Z,15.90
2019-05-26T11:26:02.278Z,36.70
2019-05-26T11:31:06.985Z,71.07
2019-05-26T11:36:11.613Z,108.87
2019-05-26T11:41:16.413Z,150.23
2019-05-26T11:46:21.918Z,87.30
2019-05-26T11:51:26.603Z,220.03
2019-05-26T11:56:31.634Z,132.97
2019-05-26T12:01:36.397Z,62.48
2019-05-26T12:06:41.178Z,140.27
2019-05-26T12:11:45.946Z,109.83
2019-05-26T12:16:50.954Z,198.23
2019-05-26T12:21:55.610Z,162.73
2019-05-26T12:27:00.288Z,165.67
2019-05-26T12:32:05.113Z,147.33
2019-05-26T12:37:09.747Z,127.60
2019-05-26T12:42:16.988Z,235.40
2019-05-26T12:47:21.552Z,236.80
2019-05-26T12:52:26.867Z,219.43
2019-05-26T12:57:31.644Z,365.87
2019-05-26T13:02:36.459Z,309.37
2019-05-26T13:07:41.848Z,221.70
2019-05-26T13:12:46.783Z,224.47
2019-05-26T13:17:51.561Z,188.37
2019-05-26T13:22:56.460Z,146.93
2019-05-26T13:28:01.184Z,41.67
2019-05-26T13:33:06.141Z,33.10
2019-05-26T13:38:10.860Z,47.40
2019-05-26T13:43:16.141Z,47.27
2019-05-26T13:48:21.242Z,64.33
2019-05-26T13:53:25.945Z,29.77
2019-05-26T13:58:30.768Z,65.53
2019-05-26T14:03:35.589Z,37.13
2019-05-26T14:08:40.560Z,147.87
2019-05-26T14:13:45.869Z,191.93
2019-05-26T14:18:52.580Z,97.53
2019-05-26T14:23:57.451Z,104.93
2019-05-26T14:29:02.184Z,147.20
2019-05-26T14:34:07.102Z,9.33
2019-05-26T14:39:12.064Z,5.37
2019-05-26T14:44:16.833Z,4.50
2019-05-26T14:49:22.145Z,4.20
2019-05-26T14:54:27.238Z,4.15
2019-05-26T14:59:32.107Z,32.90
2019-05-26T15:04:37.004Z,11.83
2019-05-26T15:09:42.224Z,5.50
2019-05-26T15:14:47.160Z,5.37
2019-05-26T15:19:52.018Z,9.27
2019-05-26T15:24:56.844Z,5.67
2019-05-26T15:30:02.107Z,5.40
2019-05-26T15:35:07.324Z,9.30
2019-05-26T15:40:13.583Z,9.07
2019-05-26T15:45:18.464Z,10.17
2019-05-26T15:50:23.544Z,11.23
2019-05-26T15:55:28.607Z,29.33
2019-05-26T16:00:33.276Z,36.13
2019-05-26T16:05:38.262Z,13.37
2019-05-26T16:10:42.903Z,10.17
2019-05-26T16:15:47.847Z,15.40
2019-05-26T16:21:02.715Z,13.47
2019-05-26T16:25:59.798Z,15.23
2019-05-26T16:31:04.782Z,19.53
2019-05-26T16:36:09.599Z,13.57
2019-05-26T16:41:14.481Z,17.20
2019-05-26T16:46:19.231Z,10.07
2019-05-26T16:51:24.047Z,14.40
2019-05-26T16:56:28.865Z,13.27
2019-05-26T17:01:33.684Z,16.33
2019-05-26T17:06:38.401Z,11.65
2019-05-26T17:11:43.182Z,13.13
2019-05-26T17:16:48.003Z,9.40
2019-05-26T17:21:52.718Z,15.43
2019-05-26T17:26:57.663Z,6.80
2019-05-26T17:32:02.324Z,10.07
2019-05-26T17:37:06.983Z,9.67
2019-05-26T17:42:12.045Z,8.50
2019-05-26T17:47:29.137Z,14.43
2019-05-26T17:52:23.722Z,6.97
2019-05-26T17:57:28.602Z,9.10
2019-05-26T18:02:33.678Z,7.80
2019-05-26T18:07:38.584Z,8.80
2019-05-26T18:12:43.285Z,15.47
2019-05-26T18:17:48.086Z,9.57
2019-05-26T18:22:53.083Z,10.77
2019-05-26T18:27:58.024Z,11.27
2019-05-26T18:33:02.708Z,5.40
2019-05-26T18:38:07.498Z,11.37
2019-05-26T18:43:12.537Z,8.77
2019-05-26T18:48:17.549Z,11.67
2019-05-26T18:53:22.643Z,10.43
2019-05-26T18:58:27.383Z,9.80
2019-05-26T19:03:32.345Z,11.95
2019-05-26T19:08:38.448Z,10.00
2019-05-26T19:13:43.409Z,10.63
2019-05-26T19:18:48.193Z,12.97
2019-05-26T19:23:52.951Z,13.10
2019-05-26T19:28:57.727Z,7.50
2019-05-26T19:34:02.586Z,9.63
2019-05-26T19:39:10.665Z,10.27
2019-05-26T19:44:15.589Z,10.73
2019-05-26T19:49:20.488Z,10.73
2019-05-26T19:54:25.651Z,18.30
2019-05-26T19:59:30.545Z,9.88
2019-05-26T20:04:35.800Z,17.27
2019-05-26T20:09:40.512Z,17.83
2019-05-26T20:14:45.400Z,15.03
2019-05-26T20:19:50.224Z,16.00
2019-05-26T20:24:54.971Z,16.80
2019-05-26T20:29:59.733Z,19.93
2019-05-26T20:35:05.191Z,16.00
2019-05-26T20:40:10.841Z,23.33
2019-05-26T20:45:16.370Z,18.00
2019-05-26T20:50:29.253Z,19.17
2019-05-26T20:55:28.809Z,15.20
2019-05-26T21:00:33.511Z,15.67
2019-05-26T21:05:38.370Z,20.97
2019-05-26T21:10:43.111Z,25.17
2019-05-26T21:15:48.272Z,20.20
2019-05-26T21:20:52.908Z,21.90
2019-05-26T21:25:58.132Z,17.23
2019-05-26T21:31:02.798Z,17.97
2019-05-26T21:36:07.830Z,18.63
2019-05-26T21:41:12.705Z,20.47
2019-05-26T21:46:17.491Z,21.50
2019-05-26T21:51:22.241Z,18.20
2019-05-26T21:56:26.969Z,23.73
2019-05-26T22:01:31.871Z,17.47
2019-05-26T22:06:36.591Z,20.47
2019-05-26T22:11:41.269Z,22.27
2019-05-26T22:16:45.923Z,16.60
2019-05-26T22:21:50.788Z,13.97
2019-05-26T22:26:55.871Z,14.27
2019-05-26T22:32:00.513Z,21.07
2019-05-26T22:37:05.289Z,21.60
2019-05-26T22:42:10.029Z,23.20
2019-05-26T22:47:14.839Z,18.63
2019-05-26T22:52:19.610Z,18.03
2019-05-26T22:57:24.645Z,19.20
2019-05-26T23:02:29.875Z,13.60
2019-05-26T23:07:34.856Z,18.98
2019-05-26T23:12:39.684Z,16.13
2019-05-26T23:17:44.593Z,18.20
2019-05-26T23:22:49.292Z,23.67
2019-05-26T23:27:53.986Z,11.73
2019-05-26T23:32:58.761Z,17.50
2019-05-26T23:38:03.399Z,14.40
2019-05-26T23:43:08.045Z,17.13
2019-05-26T23:48:12.736Z,20.43
2019-05-26T23:53:17.369Z,16.90
2019-05-26T23:58:22.218Z,19.20
